Startpagina
METAR-TAF:

METAR-TAF

Vliegvelden :

Aizawl, India

breedte: 23-50-18N, lengte: 92-37-13E, hoogte: 405 m

Actueel weer

Dit bericht is 36 minuten geleden gemaakt, om 07:00 UTC
Wind 3 kt uit het noordoosten
Temperatuur 25°C
Vochtigheid 54%
Druk 1016 hPa
Zicht: 4000 m
Verspreide wolken op 1800 ft
Gebroken wolken op 10000 ft
Heiigheid

METAR: VELP 160700Z 05003KT 4000 HZ SCT018 BKN100 25/15 Q1016 NOSIG

Tijdstip: 13:06 (07:36 UTC)

Verwachting

Dit bericht is 2 uur en het 36 minuten geleden gemaakt, om 05:00 UTC
Verwachting geldig van 16 om 06 UTC tot 16 om 15 UTC
Wind 4 kt uit het noordnoordoosten
Zicht: 5000 m
Verspreide wolken op 1800 ft
Gebroken wolken op 10000 ft
Heiigheid
Wijzigt naar
van 16 om 13 UTC tot 16 om 15 UTC
Zicht: 3000 m
nevel

TAF: VELP 160500Z 1606/1615 02004KT 5000 HZ SCT018 BKN100 BECMG 1613/1615 3000 BR

Waarnemingen en weersverwachtingen van meer dan 4000 vliegvelden (METAR en TAF).

De beschikbare stations zijn de gele en rode punten op de kaart.

Ga met uw muis naar het station om de naam te zien.

Klik dan om waarnemingen en weersverwachtingen te zien.

kaart wijzigen: klik op de groene knoppen met een zwart kruis om in te zoomen, op de groene knop met een streepje om uit te zoomen of op de groene pijlen voor aangrenzende kaarten.


METAR-TAF: